Time;durP1;ratioP1;P1;durP2;ratioP2;P2;SDS_P1;SDS_P2;PMS_P1;PMS_P2;Temp;Humidity;BMP_temperature;BMP_pressure;BME280_temperature;BME280_humidity;BME280_pressure;Samples;Min_cycle;Max_cycle;Signal;HPM_P1;HPM_P2
2023/02/03 00:02:02;;;;;;;3.47;1.87;;;;;;;1.94;70.74;98566.84;7508653;23;20212;-44
2023/02/03 00:05:05;;;;;;;2.57;1.40;;;;;;;1.97;70.90;98568.28;7507341;23;20428;-43
2023/02/03 00:08:08;;;;;;;2.03;1.70;;;;;;;1.99;70.80;98577.66;7508479;23;20549;-44
2023/02/03 00:11:10;;;;;;;1.80;1.70;;;;;;;1.96;71.10;98566.66;7508812;23;20237;-44
2023/02/03 00:14:12;;;;;;;1.47;1.33;;;;;;;1.91;71.40;98589.97;7509022;23;20212;-44
2023/02/03 00:17:14;;;;;;;1.63;1.50;;;;;;;1.95;71.17;98586.03;7507592;23;20296;-45
2023/02/03 00:20:16;;;;;;;1.30;1.20;;;;;;;1.91;71.35;98584.72;7508668;23;20217;-44
2023/02/03 00:23:18;;;;;;;2.40;1.80;;;;;;;1.99;71.33;98598.69;7508407;23;20211;-44
2023/02/03 00:26:20;;;;;;;1.90;1.70;;;;;;;1.88;71.88;98593.78;7506396;23;20694;-44
2023/02/03 00:29:24;;;;;;;3.00;1.50;;;;;;;1.90;72.00;98594.41;7505627;23;20215;-44
2023/02/03 00:32:27;;;;;;;1.53;1.40;;;;;;;1.99;71.75;98593.44;7507046;23;20278;-44
2023/02/03 00:35:30;;;;;;;1.67;1.33;;;;;;;1.71;71.80;98543.00;7508841;23;20227;-45
2023/02/03 00:38:32;;;;;;;2.00;1.77;;;;;;;1.87;71.65;98562.38;7505574;23;20211;-44
2023/02/03 00:41:34;;;;;;;1.80;1.67;;;;;;;2.03;71.47;98583.44;7503535;23;20662;-44
2023/02/03 00:44:36;;;;;;;2.93;1.77;;;;;;;2.10;71.63;98594.09;7507278;23;20596;-45
2023/02/03 00:47:38;;;;;;;2.60;1.90;;;;;;;2.11;71.46;98586.03;7505801;23;20289;-44
2023/02/03 00:50:40;;;;;;;1.70;1.60;;;;;;;1.95;71.61;98572.91;7505807;23;20226;-44
2023/02/03 00:53:42;;;;;;;1.57;1.43;;;;;;;2.02;71.86;98597.53;7507044;23;20293;-44
2023/02/03 00:56:44;;;;;;;2.43;1.93;;;;;;;2.07;71.60;98592.63;7507482;23;20210;-45
2023/02/03 00:59:46;;;;;;;2.00;1.40;;;;;;;2.13;71.48;98580.63;7506711;23;20453;-44
2023/02/03 01:02:48;;;;;;;2.17;1.40;;;;;;;2.11;71.19;98582.59;7506094;23;20242;-44
2023/02/03 01:05:50;;;;;;;1.53;1.37;;;;;;;2.07;71.28;98579.47;7505661;23;20219;-44
2023/02/03 01:08:53;;;;;;;1.63;1.20;;;;;;;2.12;71.76;98573.69;7506526;23;20214;-44
2023/02/03 01:11:55;;;;;;;1.50;1.27;;;;;;;2.09;71.73;98566.16;7506459;23;20227;-44
2023/02/03 01:14:57;;;;;;;2.67;1.50;;;;;;;2.14;71.32;98567.31;7506689;23;20216;-44
2023/02/03 01:17:59;;;;;;;1.50;1.10;;;;;;;2.09;71.66;98559.09;7506490;23;20326;-47
2023/02/03 01:21:19;;;;;;;1.70;1.23;;;;;;;2.16;71.27;98560.06;7506628;23;20202;-44
2023/02/03 01:24:21;;;;;;;2.17;1.30;;;;;;;2.11;71.32;98558.94;7506196;23;20257;-44
2023/02/03 01:27:23;;;;;;;1.90;1.53;;;;;;;1.96;71.25;98535.13;7505388;23;20232;-45
2023/02/03 01:30:25;;;;;;;3.07;1.30;;;;;;;1.62;71.52;98478.34;7506765;23;20212;-45
2023/02/03 01:33:27;;;;;;;1.00;1.00;;;;;;;2.05;71.59;98544.66;7504871;23;20545;-45
2023/02/03 01:36:31;;;;;;;2.97;1.40;;;;;;;2.00;71.92;98542.50;7506998;23;20217;-46
2023/02/03 01:39:36;;;;;;;1.10;1.00;;;;;;;1.75;72.17;98507.56;7507435;23;20263;-44
2023/02/03 01:42:38;;;;;;;2.10;1.10;;;;;;;1.98;71.78;98536.63;7504506;23;20221;-44
2023/02/03 01:45:40;;;;;;;0.90;0.90;;;;;;;1.93;71.88;98535.47;7504293;23;20214;-46
2023/02/03 01:48:42;;;;;;;0.80;0.80;;;;;;;1.98;72.19;98528.72;7507017;23;20211;-47
2023/02/03 01:51:45;;;;;;;0.50;0.50;;;;;;;1.89;72.06;98515.78;7508432;23;20223;-51
2023/02/03 01:54:51;;;;;;;0.87;0.87;;;;;;;2.08;72.28;98541.69;7505996;23;20208;-51
2023/02/03 01:58:14;;;;;;;0.90;0.80;;;;;;;2.06;72.09;98538.41;7503978;23;20218;-45
2023/02/03 02:01:17;;;;;;;0.57;0.57;;;;;;;2.09;72.34;98532.81;7504188;23;20281;-44
2023/02/03 02:04:25;;;;;;;0.80;0.67;;;;;;;2.12;72.28;98522.00;7507837;23;20217;-46
2023/02/03 02:07:28;;;;;;;1.23;0.40;;;;;;;2.15;72.51;98519.00;7506144;23;20529;-44
2023/02/03 02:10:31;;;;;;;0.60;0.47;;;;;;;2.01;73.25;98510.00;7505925;23;20315;-44
2023/02/03 02:13:34;;;;;;;0.80;0.60;;;;;;;2.08;73.08;98504.91;7508023;23;20681;-45
2023/02/03 02:17:04;;;;;;;0.97;0.50;;;;;;;2.14;72.68;98525.25;7506762;23;20686;-45
2023/02/03 02:20:30;;;;;;;0.47;0.30;;;;;;;2.16;72.91;98511.94;7506695;23;20779;-45
2023/02/03 02:24:07;;;;;;;0.40;0.33;;;;;;;2.10;73.42;98505.53;7504683;23;20284;-45
2023/02/03 02:27:28;;;;;;;0.33;0.33;;;;;;;2.10;73.93;98512.63;7504269;23;20207;-45
2023/02/03 02:31:00;;;;;;;1.37;0.50;;;;;;;1.89;74.77;98506.06;7504149;23;20234;-45
2023/02/03 02:34:27;;;;;;;0.30;0.30;;;;;;;1.93;75.42;98501.31;7505550;23;20217;-45
2023/02/03 02:37:52;;;;;;;1.07;0.40;;;;;;;1.88;75.63;98508.88;7504576;23;20673;-45
2023/02/03 02:41:13;;;;;;;0.43;0.43;;;;;;;1.79;76.37;98501.00;7501561;23;20215;-45
2023/02/03 02:44:24;;;;;;;0.30;0.30;;;;;;;1.81;76.29;98483.25;7509481;23;20268;-45
2023/02/03 02:47:26;;;;;;;0.30;0.30;;;;;;;1.83;76.19;98485.72;7503187;23;20262;-47
2023/02/03 02:50:33;;;;;;;1.13;0.40;;;;;;;1.80;76.29;98481.63;7505276;23;20211;-45
2023/02/03 02:53:41;;;;;;;0.50;0.40;;;;;;;1.80;76.51;98478.19;7506619;23;20670;-46
2023/02/03 02:56:48;;;;;;;0.20;0.20;;;;;;;1.89;76.34;98481.63;7503457;23;20218;-45
2023/02/03 02:59:50;;;;;;;0.87;0.40;;;;;;;1.82;76.75;98468.31;7506505;23;20207;-45
2023/02/03 03:02:53;;;;;;;1.20;0.33;;;;;;;1.78;76.91;98465.22;7506793;23;20292;-45
2023/02/03 03:06:05;;;;;;;0.30;0.30;;;;;;;1.89;76.85;98465.84;7503286;23;20719;-45
2023/02/03 03:09:43;;;;;;;0.30;0.23;;;;;;;1.88;76.82;98456.34;7504128;23;20203;-45
2023/02/03 03:12:50;;;;;;;0.97;0.40;;;;;;;1.84;76.75;98447.97;7495838;23;20250;-45
2023/02/03 03:15:55;;;;;;;1.90;0.30;;;;;;;1.95;76.31;98450.22;7506110;23;20214;-45
2023/02/03 03:19:05;;;;;;;0.40;0.20;;;;;;;2.00;76.32;98437.41;7506735;23;20221;-45
2023/02/03 03:22:10;;;;;;;0.30;0.20;;;;;;;2.02;76.35;98451.22;7506734;23;20214;-45
2023/02/03 03:25:16;;;;;;;0.40;0.30;;;;;;;2.03;76.48;98438.88;7506834;23;20544;-46
2023/02/03 03:28:29;;;;;;;0.20;0.20;;;;;;;2.00;76.67;98432.16;7506851;23;20766;-45
2023/02/03 03:31:31;;;;;;;0.33;0.23;;;;;;;1.98;76.48;98428.88;7508199;23;20214;-45
2023/02/03 03:34:34;;;;;;;0.20;0.20;;;;;;;2.00;76.54;98428.72;7508515;23;20214;-45
2023/02/03 03:37:55;;;;;;;0.37;0.20;;;;;;;1.97;76.90;98411.50;7505876;23;20220;-45
2023/02/03 03:41:07;;;;;;;0.20;0.20;;;;;;;2.01;76.48;98404.88;7505628;23;20210;-45
2023/02/03 03:44:14;;;;;;;0.10;0.10;;;;;;;1.92;77.00;98403.28;7508712;23;20606;-47
2023/02/03 03:47:30;;;;;;;0.40;0.10;;;;;;;1.95;76.93;98394.25;7508692;23;20218;-45
2023/02/03 03:50:37;;;;;;;0.20;0.10;;;;;;;1.99;77.15;98395.53;7508586;23;20218;-45
2023/02/03 03:53:42;;;;;;;0.77;0.10;;;;;;;1.93;77.35;98399.66;7508365;23;20572;-45
2023/02/03 03:56:55;;;;;;;0.30;0.10;;;;;;;1.97;76.88;98400.13;7507610;23;20213;-45
2023/02/03 03:59:59;;;;;;;0.10;0.10;;;;;;;2.05;76.68;98400.13;7507706;23;20701;-46
2023/02/03 04:03:09;;;;;;;0.10;0.10;;;;;;;2.01;76.91;98397.00;7508163;23;20210;-45
2023/02/03 04:06:12;;;;;;;0.17;0.10;;;;;;;1.94;77.23;98397.84;7508038;23;20288;-45
2023/02/03 04:09:14;;;;;;;0.30;0.10;;;;;;;1.96;77.56;98404.56;7507210;23;20209;-45
2023/02/03 04:12:22;;;;;;;0.10;0.10;;;;;;;1.97;77.51;98406.22;7509153;23;20204;-45
2023/02/03 04:15:25;;;;;;;0.10;0.10;;;;;;;1.95;77.71;98387.16;7507456;23;20218;-45
2023/02/03 04:18:27;;;;;;;0.00;0.00;;;;;;;1.94;78.08;98377.66;7508793;23;20227;-47
2023/02/03 04:21:29;;;;;;;0.10;0.10;;;;;;;1.96;78.71;98365.16;7507993;23;20210;-49
2023/02/03 04:24:31;;;;;;;0.10;0.10;;;;;;;1.97;79.01;98379.09;7511012;23;20221;-50
2023/02/03 04:27:34;;;;;;;0.10;0.10;;;;;;;2.03;79.35;98383.72;7508563;23;20213;-50
2023/02/03 04:30:36;;;;;;;0.10;0.10;;;;;;;2.03;79.30;98371.38;7508743;23;20218;-46
2023/02/03 04:33:39;;;;;;;0.17;0.10;;;;;;;2.06;79.73;98371.03;7507928;23;20238;-45
2023/02/03 04:36:40;;;;;;;0.10;0.10;;;;;;;2.11;79.25;98374.97;7508413;23;20221;-46
2023/02/03 04:39:43;;;;;;;0.13;0.10;;;;;;;1.94;79.14;98338.25;7505728;23;20217;-45
2023/02/03 04:42:44;;;;;;;0.10;0.10;;;;;;;2.21;79.46;98368.50;7507155;23;20218;-44
2023/02/03 04:45:46;;;;;;;0.10;0.10;;;;;;;2.28;79.22;98360.75;7506682;23;20233;-44
2023/02/03 04:48:48;;;;;;;0.10;0.10;;;;;;;2.27;79.09;98356.50;7506978;23;20224;-44
2023/02/03 04:51:50;;;;;;;1.10;0.10;;;;;;;2.33;79.05;98354.00;7505560;23;20600;-44
2023/02/03 04:54:52;;;;;;;0.33;0.20;;;;;;;2.20;78.91;98321.38;7507381;23;20214;-44
2023/02/03 04:57:56;;;;;;;0.13;0.10;;;;;;;2.14;79.38;98332.56;7507866;23;20211;-44
2023/02/03 05:01:06;;;;;;;0.20;0.20;;;;;;;2.33;79.66;98348.75;7506958;23;20269;-44
2023/02/03 05:04:08;;;;;;;0.10;0.10;;;;;;;2.33;79.82;98340.03;7505557;23;20218;-44
2023/02/03 05:07:10;;;;;;;0.30;0.20;;;;;;;2.49;78.70;98347.81;7506992;23;20215;-45
2023/02/03 05:10:12;;;;;;;0.10;0.10;;;;;;;2.47;79.45;98336.66;7507506;23;20218;-44
2023/02/03 05:13:14;;;;;;;0.67;0.10;;;;;;;2.57;78.89;98344.34;7506427;23;20226;-44
2023/02/03 05:16:16;;;;;;;0.20;0.20;;;;;;;2.50;79.02;98338.94;7506620;23;20221;-46
2023/02/03 05:19:18;;;;;;;0.10;0.10;;;;;;;2.56;78.21;98325.09;7506403;23;20950;-45
2023/02/03 05:22:20;;;;;;;0.23;0.10;;;;;;;2.64;78.28;98329.47;7505443;23;20233;-44
2023/02/03 05:25:22;;;;;;;0.20;0.20;;;;;;;2.66;78.93;98317.00;7507601;23;20289;-44
2023/02/03 05:28:25;;;;;;;0.10;0.10;;;;;;;2.70;79.13;98320.06;7506549;23;20313;-44
2023/02/03 05:31:27;;;;;;;0.10;0.10;;;;;;;2.74;78.76;98316.09;7507317;23;20234;-44
2023/02/03 05:34:29;;;;;;;0.20;0.13;;;;;;;2.66;79.79;98327.50;7507131;23;20210;-44
2023/02/03 05:37:31;;;;;;;0.20;0.10;;;;;;;2.60;79.77;98322.91;7506202;23;20221;-44
2023/02/03 05:43:53;;;;;;;0.20;0.20;;;;;;;2.83;77.59;98305.31;7511960;23;20511;-44
2023/02/03 05:46:57;;;;;;;0.20;0.20;;;;;;;2.89;77.82;98321.41;7507629;23;20534;-44
2023/02/03 05:49:59;;;;;;;0.10;0.10;;;;;;;2.85;78.97;98313.03;7506641;23;20210;-44
2023/02/03 05:53:03;;;;;;;0.10;0.10;;;;;;;2.81;78.75;98303.88;7505710;23;20218;-44
2023/02/03 05:56:05;;;;;;;0.20;0.20;;;;;;;2.83;78.17;98322.94;7506944;23;20218;-45
2023/02/03 05:59:07;;;;;;;0.33;0.20;;;;;;;2.87;77.77;98318.97;7506482;23;20221;-44
2023/02/03 06:02:09;;;;;;;0.23;0.20;;;;;;;2.90;77.59;98297.53;7506199;23;20213;-44
2023/02/03 06:05:11;;;;;;;2.07;0.20;;;;;;;2.90;78.55;98292.28;7505831;23;20226;-46
2023/02/03 06:08:14;;;;;;;0.10;0.10;;;;;;;2.80;78.88;98287.25;7506815;23;20519;-44
2023/02/03 06:11:16;;;;;;;0.10;0.10;;;;;;;2.86;78.42;98285.75;7507609;23;20547;-44
2023/02/03 06:14:18;;;;;;;0.10;0.10;;;;;;;2.81;79.08;98293.34;7506628;23;20548;-45
2023/02/03 06:17:20;;;;;;;0.20;0.20;;;;;;;2.81;78.30;98302.06;7507418;23;20210;-44
2023/02/03 06:20:22;;;;;;;0.10;0.10;;;;;;;2.80;78.24;98303.03;7506272;23;20685;-45
2023/02/03 06:23:24;;;;;;;0.20;0.20;;;;;;;2.81;79.27;98285.47;7506818;23;20214;-44
2023/02/03 06:26:26;;;;;;;0.20;0.20;;;;;;;2.75;79.29;98288.78;7506427;23;20248;-44
2023/02/03 06:29:28;;;;;;;0.50;0.50;;;;;;;2.74;79.17;98274.81;7503936;23;20210;-44
2023/02/03 06:32:30;;;;;;;0.53;0.20;;;;;;;2.72;79.24;98260.22;7503003;23;20243;-44
2023/02/03 06:35:32;;;;;;;0.20;0.20;;;;;;;2.67;79.10;98250.22;7501354;23;20544;-44
2023/02/03 06:38:34;;;;;;;0.20;0.20;;;;;;;2.82;79.05;98285.28;7503979;23;20224;-44
2023/02/03 06:41:37;;;;;;;0.17;0.17;;;;;;;2.78;78.86;98265.56;7501568;23;20216;-45
2023/02/03 06:44:39;;;;;;;0.40;0.30;;;;;;;2.89;78.77;98269.59;7505112;23;20217;-45
2023/02/03 06:47:43;;;;;;;0.60;0.30;;;;;;;2.93;78.92;98270.06;7505955;23;20561;-45
2023/02/03 06:50:45;;;;;;;0.27;0.23;;;;;;;3.01;78.62;98252.38;7505475;23;20633;-48
2023/02/03 06:53:50;;;;;;;0.30;0.30;;;;;;;3.02;78.46;98240.84;7504888;23;20217;-47
2023/02/03 06:56:52;;;;;;;1.13;0.30;;;;;;;3.03;79.36;98257.47;7506942;23;20221;-48
2023/02/03 06:59:54;;;;;;;0.30;0.30;;;;;;;3.09;78.59;98244.38;7506154;23;20288;-44
2023/02/03 07:02:57;;;;;;;0.20;0.20;;;;;;;3.11;78.30;98246.88;7505743;23;20327;-45
2023/02/03 07:05:59;;;;;;;0.30;0.30;;;;;;;3.18;78.72;98236.41;7505551;23;20221;-46
2023/02/03 07:09:03;;;;;;;0.30;0.30;;;;;;;3.23;78.07;98255.94;7505840;23;20194;-45
2023/02/03 07:12:06;;;;;;;0.30;0.30;;;;;;;3.28;78.02;98250.94;7506128;23;20210;-46
2023/02/03 07:15:09;;;;;;;0.40;0.40;;;;;;;3.27;78.96;98251.13;7506887;23;20179;-44
2023/02/03 07:18:11;;;;;;;0.60;0.40;;;;;;;3.26;79.49;98262.66;7508071;23;20183;-44
2023/02/03 07:21:22;;;;;;;0.40;0.40;;;;;;;3.12;77.06;98200.28;7510180;23;20213;-44
2023/02/03 07:24:24;;;;;;;0.43;0.43;;;;;;;3.48;78.16;98253.03;7510159;23;20210;-44
2023/02/03 07:27:27;;;;;;;0.70;0.50;;;;;;;3.57;78.05;98236.94;7508515;23;20214;-44
2023/02/03 07:30:29;;;;;;;0.53;0.53;;;;;;;3.49;78.10;98252.84;7506382;23;20539;-45
2023/02/03 07:33:31;;;;;;;1.30;0.73;;;;;;;3.57;77.50;98252.75;7508508;23;20214;-44
2023/02/03 07:36:33;;;;;;;1.00;0.80;;;;;;;3.67;76.65;98227.94;7508710;23;20216;-45
2023/02/03 07:39:35;;;;;;;0.73;0.70;;;;;;;3.67;77.46;98251.66;7509860;23;20214;-44
2023/02/03 07:42:43;;;;;;;0.80;0.80;;;;;;;3.70;77.91;98227.59;7506156;23;20210;-45
2023/02/03 07:45:45;;;;;;;1.63;0.90;;;;;;;3.78;76.51;98223.00;7507773;23;20215;-45
2023/02/03 07:48:47;;;;;;;0.80;0.80;;;;;;;3.83;76.46;98228.53;7508130;23;20671;-44
2023/02/03 07:51:49;;;;;;;1.30;0.80;;;;;;;3.77;76.22;98208.22;7507963;23;20218;-44
2023/02/03 07:54:51;;;;;;;0.83;0.60;;;;;;;3.94;76.35;98214.09;7508424;23;20214;-44
2023/02/03 07:57:57;;;;;;;1.37;0.80;;;;;;;4.06;76.12;98227.59;7507472;23;20299;-45
2023/02/03 08:00:59;;;;;;;0.73;0.73;;;;;;;4.07;76.00;98227.41;7507398;23;20694;-44
2023/02/03 08:04:04;;;;;;;0.97;0.90;;;;;;;4.22;75.00;98211.53;7508133;23;20210;-44
2023/02/03 08:07:06;;;;;;;0.80;0.80;;;;;;;4.22;76.35;98203.63;7510330;23;20288;-44
2023/02/03 08:10:11;;;;;;;1.90;0.60;;;;;;;4.25;75.58;98195.34;7511169;23;20221;-46
2023/02/03 08:13:13;;;;;;;0.90;0.70;;;;;;;4.31;75.98;98244.69;7506855;23;20225;-45
2023/02/03 08:16:15;;;;;;;0.80;0.57;;;;;;;4.35;75.81;98203.75;7507053;23;20218;-44
2023/02/03 08:19:17;;;;;;;0.97;0.63;;;;;;;4.34;75.91;98211.84;7508077;23;20214;-45
2023/02/03 08:22:19;;;;;;;0.47;0.47;;;;;;;4.35;74.82;98195.84;7507880;23;20215;-45
2023/02/03 08:25:21;;;;;;;1.37;0.70;;;;;;;4.43;75.47;98191.41;7510000;23;20219;-44
2023/02/03 08:28:23;;;;;;;0.63;0.50;;;;;;;4.50;76.21;98237.16;7506836;23;20214;-45
2023/02/03 08:31:25;;;;;;;0.70;0.70;;;;;;;4.62;74.82;98175.75;7508741;23;20218;-44
2023/02/03 08:34:28;;;;;;;0.70;0.70;;;;;;;4.65;75.21;98191.22;7506155;23;20217;-45
2023/02/03 08:37:31;;;;;;;1.37;0.87;;;;;;;4.52;74.11;98169.19;7507177;23;20521;-45
2023/02/03 08:40:33;;;;;;;1.27;0.73;;;;;;;4.64;74.77;98146.56;7503826;23;20214;-44
2023/02/03 08:43:35;;;;;;;0.97;0.80;;;;;;;4.56;73.55;98123.75;7505870;23;20221;-45
2023/02/03 08:46:42;;;;;;;1.93;0.80;;;;;;;4.63;72.87;98158.94;7507771;23;20215;-44
2023/02/03 08:49:45;;;;;;;3.83;1.33;;;;;;;4.73;72.52;98137.50;7507153;23;20286;-45
2023/02/03 08:52:47;;;;;;;0.87;0.83;;;;;;;4.79;72.94;98146.47;7508062;23;20295;-44
2023/02/03 08:55:49;;;;;;;0.97;0.80;;;;;;;4.74;73.04;98167.34;7507449;23;20321;-44
2023/02/03 08:58:51;;;;;;;2.20;1.33;;;;;;;4.87;71.87;98178.78;7506155;23;20219;-44
2023/02/03 09:01:58;;;;;;;2.33;1.33;;;;;;;4.90;72.00;98138.00;7507477;23;20220;-45
2023/02/03 09:05:00;;;;;;;1.20;1.10;;;;;;;4.89;71.90;98150.38;7506552;23;20215;-44
2023/02/03 09:08:03;;;;;;;4.80;1.33;;;;;;;4.85;71.24;98154.41;7508028;23;20733;-44
2023/02/03 09:11:13;;;;;;;2.00;1.10;;;;;;;4.95;69.59;98159.34;7506194;23;20215;-44
2023/02/03 09:14:15;;;;;;;3.00;1.00;;;;;;;4.99;70.43;98141.28;7506286;23;20226;-44
2023/02/03 09:17:17;;;;;;;1.07;0.97;;;;;;;5.12;69.66;98123.69;7507164;23;20211;-47
2023/02/03 09:20:19;;;;;;;0.90;0.60;;;;;;;5.19;69.28;98115.81;7508119;23;20301;-47
2023/02/03 09:23:22;;;;;;;0.50;0.50;;;;;;;5.28;68.00;98095.31;7507374;23;20218;-49
2023/02/03 09:26:24;;;;;;;0.93;0.70;;;;;;;5.31;68.09;98094.91;7506737;23;20290;-44
2023/02/03 09:29:26;;;;;;;2.33;0.83;;;;;;;5.47;67.19;98091.94;7506690;23;20314;-44
2023/02/03 09:32:28;;;;;;;3.07;0.60;;;;;;;5.61;66.74;98051.28;7508482;23;20225;-44
2023/02/03 09:35:30;;;;;;;1.67;0.77;;;;;;;5.84;66.13;98076.53;7504989;23;20291;-45
2023/02/03 09:38:33;;;;;;;1.33;0.60;;;;;;;5.97;65.13;98073.16;7506780;23;20274;-45
2023/02/03 09:42:19;;;;;;;0.40;0.40;;;;;;;6.05;65.83;98049.94;7506154;23;20300;-44
2023/02/03 09:45:21;;;;;;;1.53;0.57;;;;;;;6.12;65.59;98064.00;7466269;23;20327;-44
2023/02/03 09:48:31;;;;;;;1.47;0.50;;;;;;;6.01;65.00;98058.47;7466887;23;20589;-45
2023/02/03 09:52:02;;;;;;;0.73;0.50;;;;;;;5.99;64.24;98053.41;7506745;23;20214;-44
2023/02/03 09:55:22;;;;;;;1.10;0.50;;;;;;;5.99;65.02;98060.53;7514811;23;20214;-45
2023/02/03 09:58:33;;;;;;;0.57;0.40;;;;;;;5.64;64.78;98034.22;7506073;23;20212;-45
2023/02/03 10:01:53;;;;;;;0.80;0.67;;;;;;;5.95;64.67;98062.75;7507002;23;20292;-44
2023/02/03 10:05:03;;;;;;;0.80;0.50;;;;;;;5.83;64.68;98044.00;7506928;23;20216;-45
2023/02/03 10:08:11;;;;;;;1.67;0.50;;;;;;;6.02;65.16;98087.38;7507815;23;20211;-47
2023/02/03 10:11:48;;;;;;;1.23;0.47;;;;;;;6.03;64.85;98037.94;7503234;23;20541;-44
2023/02/03 10:15:16;;;;;;;0.70;0.50;;;;;;;6.15;63.55;98015.13;7494455;23;20226;-44
2023/02/03 10:18:24;;;;;;;0.50;0.50;;;;;;;6.23;63.38;98030.00;7505104;23;20208;-44
2023/02/03 10:21:40;;;;;;;0.67;0.50;;;;;;;6.46;63.81;98044.44;7505155;23;20213;-44
2023/02/03 10:24:48;;;;;;;0.43;0.40;;;;;;;6.61;62.55;97993.91;7506217;23;20262;-45
2023/02/03 10:27:54;;;;;;;0.83;0.40;;;;;;;6.62;62.29;97987.56;7506030;23;20297;-45
2023/02/03 10:30:59;;;;;;;0.83;0.50;;;;;;;7.06;62.23;97974.56;7507866;23;20229;-44
2023/02/03 10:34:15;;;;;;;0.80;0.37;;;;;;;7.10;61.47;97973.13;7506449;23;20214;-45
2023/02/03 10:37:36;;;;;;;3.27;0.40;;;;;;;6.83;61.63;97978.53;7505984;23;20643;-44
2023/02/03 10:40:38;;;;;;;0.30;0.30;;;;;;;6.71;62.21;97956.41;7502905;23;20215;-45
2023/02/03 10:43:47;;;;;;;0.83;0.43;;;;;;;6.53;61.94;97975.59;7507228;23;20276;-45
2023/02/03 10:46:49;;;;;;;3.33;0.40;;;;;;;6.52;62.46;97917.59;7505361;23;20233;-44
2023/02/03 10:49:53;;;;;;;0.47;0.40;;;;;;;6.64;61.67;97932.56;7504880;23;20753;-44
2023/02/03 10:53:17;;;;;;;1.90;0.50;;;;;;;6.38;62.61;97885.06;7506111;23;20611;-45
2023/02/03 10:56:30;;;;;;;1.07;0.50;;;;;;;6.48;62.27;97903.94;7505553;23;20217;-44
2023/02/03 10:59:36;;;;;;;2.43;0.70;;;;;;;6.51;61.91;97908.03;7506188;23;20218;-44
2023/02/03 11:02:38;;;;;;;0.40;0.40;;;;;;;6.46;61.64;97904.16;7506546;23;20218;-45
2023/02/03 11:05:40;;;;;;;1.23;0.30;;;;;;;6.44;61.10;97882.38;7506580;23;20528;-44
2023/02/03 11:08:46;;;;;;;0.50;0.40;;;;;;;6.53;61.17;97893.53;7507268;23;20535;-44
2023/02/03 11:12:11;;;;;;;0.30;0.30;;;;;;;6.49;62.35;97918.00;7506176;23;20710;-44
2023/02/03 11:15:14;;;;;;;0.50;0.33;;;;;;;6.37;61.09;97918.66;7505126;23;20300;-44
2023/02/03 11:18:49;;;;;;;1.13;0.50;;;;;;;6.40;61.09;97912.09;7505437;23;20181;-44
2023/02/03 11:21:55;;;;;;;0.87;0.40;;;;;;;6.31;62.08;97919.50;7505374;23;20214;-44
2023/02/03 11:24:59;;;;;;;0.30;0.30;;;;;;;6.33;62.53;97921.91;7512029;23;20217;-45
2023/02/03 11:28:06;;;;;;;1.20;0.60;;;;;;;6.22;62.55;97936.59;7505592;23;20588;-44
2023/02/03 11:31:30;;;;;;;0.80;0.50;;;;;;;6.18;61.49;97917.69;7507702;23;20221;-44
2023/02/03 11:34:36;;;;;;;0.67;0.57;;;;;;;6.19;62.37;97958.16;7506874;23;20229;-44
2023/02/03 11:37:40;;;;;;;0.90;0.50;;;;;;;6.18;62.17;97901.81;7508475;23;20742;-44
2023/02/03 11:40:42;;;;;;;1.63;0.43;;;;;;;6.15;61.60;97872.31;7505443;23;20247;-45
2023/02/03 11:43:46;;;;;;;0.30;0.30;;;;;;;6.17;62.73;97857.06;7508436;23;20213;-44
2023/02/03 11:47:10;;;;;;;0.60;0.50;;;;;;;6.15;61.81;97862.53;7506914;23;20222;-45
2023/02/03 11:50:24;;;;;;;1.43;0.40;;;;;;;6.14;61.97;97891.84;7508308;23;20708;-47
2023/02/03 11:53:45;;;;;;;0.40;0.40;;;;;;;6.05;62.09;97841.00;7509015;23;20221;-46
2023/02/03 11:57:20;;;;;;;0.77;0.43;;;;;;;6.04;62.16;97831.47;7509034;23;20587;-49
2023/02/03 12:00:47;;;;;;;4.90;0.73;;;;;;;6.13;61.62;97830.22;7505888;23;20216;-45
2023/02/03 12:04:07;;;;;;;0.50;0.30;;;;;;;6.15;62.01;97801.69;7507345;23;20262;-44
2023/02/03 12:07:24;;;;;;;0.57;0.40;;;;;;;6.15;62.35;97780.53;7507593;23;20694;-45
2023/02/03 12:10:26;;;;;;;1.60;0.47;;;;;;;6.16;62.28;97798.06;7507651;23;20274;-44
2023/02/03 12:13:41;;;;;;;2.33;0.50;;;;;;;6.15;62.25;97780.53;7507266;23;20227;-45
2023/02/03 12:17:24;;;;;;;0.70;0.50;;;;;;;6.09;61.93;97777.94;7507821;23;20259;-46
2023/02/03 12:20:41;;;;;;;1.73;0.30;;;;;;;6.14;61.68;97756.97;7516061;23;20248;-44
2023/02/03 12:23:59;;;;;;;0.47;0.30;;;;;;;6.12;61.71;97761.66;7507077;23;20213;-45
2023/02/03 12:27:17;;;;;;;0.93;0.30;;;;;;;6.12;63.53;97720.16;7508755;23;20208;-44
2023/02/03 12:30:31;;;;;;;0.30;0.30;;;;;;;6.03;63.39;97737.28;7507229;23;20717;-44
2023/02/03 12:33:42;;;;;;;0.70;0.33;;;;;;;6.10;62.04;97748.63;7506606;23;20216;-45
2023/02/03 12:37:00;;;;;;;0.30;0.20;;;;;;;6.04;62.30;97709.00;7507215;23;20283;-44
2023/02/03 12:40:28;;;;;;;0.50;0.30;;;;;;;6.19;62.50;97722.75;7506802;23;20601;-44
2023/02/03 12:43:42;;;;;;;0.30;0.30;;;;;;;6.08;63.29;97715.50;7506517;23;20215;-44
2023/02/03 12:46:55;;;;;;;0.50;0.30;;;;;;;6.13;63.69;97750.06;7505421;23;20242;-44
2023/02/03 12:50:04;;;;;;;0.50;0.30;;;;;;;5.88;65.43;97720.84;7506321;23;20294;-45
2023/02/03 12:53:14;;;;;;;1.60;0.30;;;;;;;5.77;66.93;97693.25;7508126;23;20614;-45
2023/02/03 12:56:32;;;;;;;1.37;0.33;;;;;;;5.69;66.42;97654.66;7506227;23;20266;-45
2023/02/03 12:59:39;;;;;;;0.40;0.30;;;;;;;5.70;65.28;97663.38;7506449;23;20276;-58
2023/02/03 13:03:14;;;;;;;0.30;0.30;;;;;;;5.61;64.65;97677.84;7507160;23;20236;-59
2023/02/03 13:06:28;;;;;;;0.37;0.30;;;;;;;5.67;66.38;97643.50;7496030;23;20221;-59
2023/02/03 13:09:44;;;;;;;0.60;0.33;;;;;;;5.51;64.49;97649.25;7506923;23;20208;-59
2023/02/03 13:12:52;;;;;;;0.23;0.20;;;;;;;5.70;64.42;97647.53;7507384;23;20332;-58
2023/02/03 13:15:56;;;;;;;0.40;0.40;;;;;;;5.74;65.46;97642.63;7512418;23;20534;-59
2023/02/03 13:19:04;;;;;;;1.07;0.50;;;;;;;5.57;64.10;97600.06;7510076;23;20740;-58
2023/02/03 13:22:12;;;;;;;0.87;0.30;;;;;;;5.73;64.09;97647.13;7508219;23;20285;-60
2023/02/03 13:25:28;;;;;;;0.60;0.30;;;;;;;5.88;63.32;97655.56;7508583;23;20271;-60
2023/02/03 13:29:07;;;;;;;0.37;0.33;;;;;;;5.89;62.60;97622.00;7506795;23;20299;-60
2023/02/03 13:32:37;;;;;;;0.40;0.40;;;;;;;5.94;62.50;97611.63;7504977;23;20542;-59
2023/02/03 13:36:10;;;;;;;0.40;0.30;;;;;;;5.75;63.29;97600.13;7507392;23;20530;-58
2023/02/03 13:39:27;;;;;;;0.40;0.30;;;;;;;5.84;63.13;97596.22;7507046;23;20316;-60
2023/02/03 13:42:33;;;;;;;0.57;0.30;;;;;;;5.86;63.06;97625.91;7506958;23;20218;-57
2023/02/03 13:45:40;;;;;;;0.30;0.27;;;;;;;5.83;63.70;97601.72;7505228;23;20365;-59
2023/02/03 13:48:45;;;;;;;1.43;0.30;;;;;;;5.90;62.79;97618.34;7504303;23;20589;-59
2023/02/03 13:51:48;;;;;;;0.20;0.20;;;;;;;5.88;63.90;97628.31;7506060;23;20719;-60
2023/02/03 13:54:50;;;;;;;0.57;0.40;;;;;;;5.79;65.30;97614.53;7504314;23;20224;-61
2023/02/03 13:57:52;;;;;;;0.87;0.40;;;;;;;5.68;67.18;97621.31;7504066;23;20219;-57
2023/02/03 14:00:55;;;;;;;0.30;0.30;;;;;;;5.54;69.21;97658.59;7505863;23;20300;-59
2023/02/03 14:03:57;;;;;;;1.13;0.30;;;;;;;5.33;68.76;97591.81;7506410;23;20215;-56
2023/02/03 14:07:24;;;;;;;1.53;0.43;;;;;;;5.28;69.53;97611.97;7507901;23;20755;-58
2023/02/03 14:10:31;;;;;;;0.37;0.30;;;;;;;4.98;70.70;97594.00;7507084;23;20215;-57
2023/02/03 14:13:33;;;;;;;0.50;0.40;;;;;;;5.15;69.33;97626.84;7513835;23;20287;-55
2023/02/03 14:16:40;;;;;;;1.80;0.60;;;;;;;5.04;71.00;97632.75;7527847;23;20157;-60
2023/02/03 14:19:51;;;;;;;0.20;0.20;;;;;;;5.06;71.33;97630.72;7528605;23;20161;-60
2023/02/03 14:23:11;;;;;;;1.10;0.47;;;;;;;4.97;71.41;97634.59;7533909;23;20346;-56
2023/02/03 14:26:19;;;;;;;0.50;0.40;;;;;;;5.06;71.25;97629.91;7521356;23;20269;-60
2023/02/03 14:29:26;;;;;;;0.30;0.30;;;;;;;5.04;71.35;97624.84;7507691;23;20291;-57
2023/02/03 14:32:57;;;;;;;0.93;0.53;;;;;;;4.81;73.56;97658.78;7505156;23;20742;-58
2023/02/03 14:35:59;;;;;;;2.27;0.50;;;;;;;4.77;73.10;97636.47;7511585;23;20216;-56
2023/02/03 14:39:16;;;;;;;0.30;0.30;;;;;;;4.76;72.58;97630.38;7511838;23;20215;-54
2023/02/03 14:42:44;;;;;;;0.30;0.30;;;;;;;4.72;74.60;97639.72;7506107;23;20222;-59
2023/02/03 14:46:04;;;;;;;3.97;0.50;;;;;;;4.61;73.54;97659.63;7491107;23;20225;-61
2023/02/03 14:49:12;;;;;;;0.60;0.40;;;;;;;4.64;74.72;97658.41;7511975;23;20221;-54
2023/02/03 14:52:43;;;;;;;0.87;0.40;;;;;;;4.62;74.93;97647.25;7507225;23;20219;-59
2023/02/03 14:55:50;;;;;;;0.30;0.30;;;;;;;4.68;73.75;97641.16;7506436;23;20310;-59
2023/02/03 14:58:58;;;;;;;0.80;0.50;;;;;;;4.75;72.44;97662.25;7506316;23;20533;-58